< < Back
Terminal Aerodrome Forecast


Current Version              Previous Versions:   1  2  3  4  5  6  7  8  9  

Terminal Aerodrome Forecast

329
FTUS44 KBMX 061800 AAA
TAFMGM
TAF AMD
KMGM 061828Z 0618/0718 03005KT P6SM SCT030
     FM062100 33005KT P6SM SKC
     FM070300 00000KT P6SM SKC=



Latest METAR

779
SAUS80 KWBC 070400 RRA
MTRMGM
METAR KMGM 070353Z 32003KT 10SM CLR 03/M02 A3047 RMK AO2 SLP318
T00331022


USA.gov is the U.S. government's official web portal to all federal, state and local government web resources and services.